Terminal Aerodrome Forecast
Issued by NWS

Home | Current Version | Previous Version | Text Only | Print | Product List | Glossary On
Versions: 1 2 3 4 5 6 7 8 9 10 11 12 13 14 15 16 17 18 19 20 21
000
FTUS41 KBTV 280900 AAA
TAFMSS
TAF AMD
KMSS 280921Z 2809/2906 04007KT P6SM SCT006 BKN015 OVC025
      TEMPO 2809/2813 -SHRA BKN006 OVC015
     FM281300 03010KT 4SM -RA BR SCT010 OVC020
      TEMPO 2813/2815 2SM +RA BR SCT006 OVC015
     FM282100 34010KT 3SM -RA BR OVC015
     FM290000 33011KT 4SM BR OVC025
     FM290300 30009KT P6SM SCT050=

USA.gov is the U.S. government's official web portal to all federal, state and local government web resources and services.